Flight Track Log - Related Links

Times and Time Zones

All times are in EDT time to prevent confusion due to time zone crossing. See the UPS1134 flight status page for this flight to view local times or setup timezone preferences in your user account.

Time Position Orientation Groundspeed Altitude Reporting Facility
EDT Latitude Longitude Course Direction KTS MPH feet Rate Location/Type
Tue 05:29:04 AM 42.6917 -73.8553 219° Southwest 217 250 4,000  Level Boston Center
Tue 05:29:57 AM 42.6992 -73.9261 278° West 259 298 6,100 2,814 Climbing Boston Center
Tue 05:30:57 AM 42.7122 -74.0281 280° West 296 341 9,300 2,450 Climbing Boston Center
Tue 05:31:57 AM 42.7272 -74.1528 279° West 296 341 11,000 291 Climbing Boston Center
Tue 05:37:29 AM 42.8890 -74.8840 279° West 344 396 11,200 32 Climbing FlightAware ADS-B
Tue 05:38:09 AM 42.9040 -74.9550 286° West 344 396 11,200 -209 Level FlightAware ADS-B
Tue 05:38:55 AM 42.9270 -75.0620 286° West 314 361 10,900 -467 Descending FlightAware ADS-B
Tue 05:39:39 AM 42.9440 -75.1440 286° West 295 339 10,500 -783 Descending FlightAware ADS-B
Tue 05:40:27 AM 42.9620 -75.2270 287° West 288 331 9,700 -1,184 Descending FlightAware ADS-B
Tue 05:40:55 AM 42.9710 -75.2780 284° West 286 329 9,000 -1,286 Descending FlightAware ADS-B
Tue 05:41:23 AM 42.9710 -75.3290 270° West 279 321 8,500 -1,286 Descending FlightAware ADS-B
Tue 05:41:51 AM 42.9700 -75.3790 268° West 275 316 7,800 -1,313 Descending FlightAware ADS-B
Tue 05:42:27 AM 42.9670 -75.4410 266° West 269 310 7,100 -1,200 Descending FlightAware ADS-B
Tue 05:42:51 AM 42.9650 -75.4820 266° West 265 305 6,600 -1,286 Descending FlightAware ADS-B
Tue 05:43:23 AM 42.9630 -75.5360 267° West 266 306 5,900 -1,279 Descending FlightAware ADS-B
Tue 05:43:52 AM 42.9610 -75.5840 267° West 266 306 5,300 -1,024 Descending FlightAware ADS-B
Tue 05:44:04 AM 42.9610 -75.6050 270° West 269 310 5,200 -150 Descending FlightAware ADS-B
Tue 05:44:32 AM 42.9600 -75.6530 268° West 266 306 5,200  Level FlightAware ADS-B
Tue 05:44:48 AM 42.9590 -75.6800 267° West 266 306 5,200  Level FlightAware ADS-B
Tue 05:45:16 AM 42.9570 -75.7270 267° West 268 308 5,200  Level FlightAware ADS-B
Tue 05:45:28 AM 42.9560 -75.7470 266° West 268 308 5,200  Level FlightAware ADS-B
Tue 05:45:56 AM 42.9540 -75.7960 267° West 268 308 5,200 -321 Level FlightAware ADS-B
Tue 05:46:24 AM 42.9530 -75.8420 268° West 269 310 4,900 -750 Descending FlightAware ADS-B
Tue 05:46:52 AM 42.9510 -75.8890 267° West 270 311 4,500 -955 Descending FlightAware ADS-B
Tue 05:47:08 AM 42.9500 -75.9170 267° West 272 313 4,200 -500 Descending FlightAware ADS-B
Tue 05:47:28 AM 42.9490 -75.9510 268° West 270 311 4,200  Level FlightAware ADS-B
Tue 05:47:56 AM 42.9480 -75.9990 268° West 271 312 4,200  Level FlightAware ADS-B
Tue 05:48:24 AM 42.9470 -76.0470 268° West 267 307 4,200  Level FlightAware ADS-B
Tue 05:48:52 AM 42.9460 -76.0940 268° West 265 305 4,200  Level FlightAware ADS-B
Tue 05:49:16 AM 42.9450 -76.1340 268° West 260 299 4,200  Level FlightAware ADS-B
Tue 05:49:40 AM 42.9440 -76.1710 268° West 237 273 4,200  Level FlightAware ADS-B
Tue 05:50:22 AM 42.9540 -76.2260 284° West 206 237 4,200  Level FlightAware ADS-B
Tue 05:50:50 AM 42.9740 -76.2490 320° Northwest 200 230 4,200 -214 Level FlightAware ADS-B
Tue 05:51:18 AM 42.9940 -76.2710 321° Northwest 197 227 4,000 -643 Descending FlightAware ADS-B
Tue 05:51:46 AM 43.0130 -76.2940 318° Northwest 192 221 3,600 -889 Descending FlightAware ADS-B
Tue 05:52:12 AM 43.0300 -76.3150 318° Northwest 193 222 3,200 -900 Descending FlightAware ADS-B
Tue 05:52:26 AM 43.0420 -76.3210 340° North 185 213 3,000 -571 Descending FlightAware ADS-B
Tue 05:52:54 AM 43.0650 -76.3230 356° North 174 200 2,800 -429 Descending FlightAware ADS-B
Tue 05:53:22 AM 43.0850 -76.3150 16° North 167 192 2,600 -273 Descending FlightAware ADS-B
Tue 05:53:38 AM 43.0910 -76.3000 61° Northeast 169 194 2,600  Level FlightAware ADS-B
Tue 05:54:06 AM 43.0990 -76.2720 69° East 164 189 2,600 -250 Level FlightAware ADS-B
Tue 05:54:26 AM 43.1040 -76.2520 71° East 153 176 2,400 -612 Descending FlightAware ADS-B
Tue 05:54:55 AM 43.1050 -76.2280 87° East 127 146 2,100 -643 Descending FlightAware ADS-B
Tue 05:55:22 AM 43.1050 -76.2050 90° East 126 145 1,800 -655 Descending FlightAware ADS-B
Tue 05:55:50 AM 43.1060 -76.1830 86° East 124 143 1,500 -692 Descending FlightAware ADS-B
Tue 05:56:14 AM 43.1070 -76.1650 86° East 120 138 1,200 -720 Descending FlightAware ADS-B
Tue 05:56:40 AM 43.1080 -76.1450 86° East 122 140 900 -375 Descending FlightAware ADS-B
Tue 05:57:18 AM 43.1090 -76.1190 87° East 120 138 800 -158 Descending FlightAware ADS-B
Tue 06:03:00 AM 43.1112 -76.1063 77° East  Level Estimated
Tue 06:04:00 AM 43.1112 -76.1063 36° Northeast  Level Estimated
Tue 06:05:00 AM 43.1112 -76.1063 36° Northeast  Level Estimated

Login

Don't have an account? Register now (free) for customized features, flight alerts, and more!